Time;durP1;ratioP1;P1;durP2;ratioP2;P2;SDS_P1;SDS_P2;PMS_P1;PMS_P2;Temp;Humidity;BMP_temperature;BMP_pressure;BME280_temperature;BME280_humidity;BME280_pressure;Samples;Min_cycle;Max_cycle;Signal;HPM_P1;HPM_P2
2024/01/11 00:03:43;;;;;;;5.73;2.83;;;;;;;;;;10331756;28;20235;-68
2024/01/11 00:08:43;;;;;;;6.10;3.20;;;;;;;;;;10331826;28;20235;-68
2024/01/11 00:13:43;;;;;;;7.87;4.27;;;;;;;;;;10331312;28;20206;-68
2024/01/11 00:18:44;;;;;;;7.77;4.20;;;;;;;;;;10329341;28;20228;-69
2024/01/11 00:23:45;;;;;;;4.87;2.63;;;;;;;;;;10331022;28;20207;-68
2024/01/11 00:28:45;;;;;;;7.10;4.20;;;;;;;;;;10331068;28;20218;-68
2024/01/11 00:33:45;;;;;;;6.22;3.72;;;;;;;;;;10330764;28;20292;-68
2024/01/11 00:38:45;;;;;;;8.20;3.60;;;;;;;;;;10328387;28;20249;-68
2024/01/11 00:43:46;;;;;;;4.80;2.90;;;;;;;;;;10330623;28;20226;-68
2024/01/11 00:48:46;;;;;;;5.32;2.85;;;;;;;;;;10329992;28;20221;-67
2024/01/11 00:53:46;;;;;;;5.90;3.70;;;;;;;;;;10330349;28;20225;-68
2024/01/11 00:58:46;;;;;;;5.40;3.10;;;;;;;;;;10327197;28;20236;-68
2024/01/11 01:03:46;;;;;;;5.60;3.07;;;;;;;;;;10329592;28;20237;-68
2024/01/11 01:08:46;;;;;;;4.80;2.93;;;;;;;;;;10329336;28;20218;-68
2024/01/11 01:13:47;;;;;;;6.07;3.33;;;;;;;;;;10327188;28;20237;-68
2024/01/11 01:18:47;;;;;;;4.23;2.97;;;;;;;;;;10328888;28;20194;-68
2024/01/11 01:23:47;;;;;;;9.87;4.30;;;;;;;;;;10328553;28;20628;-68
2024/01/11 01:28:47;;;;;;;5.83;3.20;;;;;;;;;;10328199;28;20295;-68
2024/01/11 01:33:47;;;;;;;6.17;3.43;;;;;;;;;;10326269;28;20211;-68
2024/01/11 01:38:47;;;;;;;7.87;3.83;;;;;;;;;;10328056;28;20184;-68
2024/01/11 01:43:48;;;;;;;6.37;2.33;;;;;;;;;;10328017;28;20301;-68
2024/01/11 01:48:48;;;;;;;6.03;3.20;;;;;;;;;;10328185;28;20573;-68
2024/01/11 01:53:48;;;;;;;4.90;3.35;;;;;;;;;;10325489;28;20217;-68
2024/01/11 01:58:51;;;;;;;7.40;4.00;;;;;;;;;;10327742;28;20198;-68
2024/01/11 02:03:52;;;;;;;8.27;4.20;;;;;;;;;;10326776;28;20265;-68
2024/01/11 02:08:53;;;;;;;6.03;3.40;;;;;;;;;;10326660;28;20642;-68
2024/01/11 02:13:53;;;;;;;6.90;3.77;;;;;;;;;;10325330;28;20529;-68
2024/01/11 02:18:53;;;;;;;17.00;6.17;;;;;;;;;;10326985;28;20650;-68
2024/01/11 02:24:06;;;;;;;3.43;2.07;;;;;;;;;;10327267;28;21074;-68
2024/01/11 02:29:06;;;;;;;10.63;4.40;;;;;;;;;;10326942;28;20213;-68
2024/01/11 02:34:07;;;;;;;11.13;3.80;;;;;;;;;;10324559;28;20291;-68
2024/01/11 02:39:07;;;;;;;10.25;4.55;;;;;;;;;;10326868;28;20194;-68
2024/01/11 02:44:07;;;;;;;16.97;5.73;;;;;;;;;;10326643;28;20222;-68
2024/01/11 02:49:07;;;;;;;19.67;6.13;;;;;;;;;;10324578;28;20225;-68
2024/01/11 02:54:07;;;;;;;21.60;7.13;;;;;;;;;;10326324;28;20310;-68
2024/01/11 02:59:08;;;;;;;25.20;6.13;;;;;;;;;;10326645;28;20672;-68
2024/01/11 03:04:08;;;;;;;10.10;4.23;;;;;;;;;;10327144;28;20593;-68
2024/01/11 03:09:08;;;;;;;13.40;4.33;;;;;;;;;;10322239;28;20220;-67
2024/01/11 03:14:08;;;;;;;19.13;6.20;;;;;;;;;;10326333;28;20700;-68
2024/01/11 03:19:08;;;;;;;5.47;2.97;;;;;;;;;;10326304;28;20437;-68
2024/01/11 03:24:09;;;;;;;6.30;2.67;;;;;;;;;;10333721;28;20218;-68
2024/01/11 03:29:09;;;;;;;18.98;5.65;;;;;;;;;;10330970;28;20214;-68
2024/01/11 03:34:09;;;;;;;5.87;2.83;;;;;;;;;;10331872;28;20691;-68
2024/01/11 03:39:09;;;;;;;2.83;2.17;;;;;;;;;;10333119;28;20754;-68
2024/01/11 03:44:09;;;;;;;5.33;2.67;;;;;;;;;;10332619;28;21109;-68
2024/01/11 03:49:10;;;;;;;4.78;2.30;;;;;;;;;;10330741;28;20572;-68
2024/01/11 03:54:10;;;;;;;8.53;3.17;;;;;;;;;;10332238;28;20202;-68
2024/01/11 03:59:10;;;;;;;3.83;2.53;;;;;;;;;;10332321;28;20491;-68
2024/01/11 04:04:10;;;;;;;5.23;3.10;;;;;;;;;;10331316;28;20704;-68
2024/01/11 04:09:11;;;;;;;4.43;2.93;;;;;;;;;;10329959;28;20484;-68
2024/01/11 04:14:11;;;;;;;14.17;6.73;;;;;;;;;;10331532;28;20555;-68
2024/01/11 04:19:12;;;;;;;6.00;3.43;;;;;;;;;;10331346;28;20452;-68
2024/01/11 04:24:12;;;;;;;4.07;3.00;;;;;;;;;;10331234;28;20619;-68
2024/01/11 04:29:13;;;;;;;5.73;3.83;;;;;;;;;;10331108;28;20221;-69
2024/01/11 04:34:13;;;;;;;4.27;2.93;;;;;;;;;;10329827;28;20781;-68
2024/01/11 04:39:13;;;;;;;5.30;2.43;;;;;;;;;;10330794;28;20561;-68
2024/01/11 04:44:13;;;;;;;6.43;3.50;;;;;;;;;;10330261;28;20217;-68
2024/01/11 04:49:13;;;;;;;6.30;3.57;;;;;;;;;;10330062;28;20214;-68
2024/01/11 04:54:14;;;;;;;5.73;3.23;;;;;;;;;;10330227;28;20221;-68
2024/01/11 04:59:14;;;;;;;5.60;3.80;;;;;;;;;;10329798;28;20202;-68
2024/01/11 05:04:14;;;;;;;9.13;4.10;;;;;;;;;;10321485;22;20241;-67
2024/01/11 05:09:14;;;;;;;8.20;4.00;;;;;;;;;;10288581;28;20628;-67
2024/01/11 05:14:15;;;;;;;13.20;5.50;;;;;;;;;;10289241;28;20564;-67
2024/01/11 05:19:15;;;;;;;23.80;8.07;;;;;;;;;;10289342;28;20542;-66
2024/01/11 05:24:15;;;;;;;110.13;41.17;;;;;;;;;;10288645;28;20238;-66
2024/01/11 05:29:15;;;;;;;25.23;11.13;;;;;;;;;;10289039;28;20226;-69
2024/01/11 05:34:15;;;;;;;9.13;4.17;;;;;;;;;;10288387;28;20571;-67
2024/01/11 05:39:15;;;;;;;5.70;3.23;;;;;;;;;;10288840;28;20191;-67
2024/01/11 05:44:16;;;;;;;6.18;3.28;;;;;;;;;;10288197;28;20304;-68
2024/01/11 05:49:16;;;;;;;8.77;4.50;;;;;;;;;;10287842;28;20595;-67
2024/01/11 05:54:16;;;;;;;4.83;3.17;;;;;;;;;;10287944;28;20230;-67
2024/01/11 05:59:16;;;;;;;6.00;3.53;;;;;;;;;;10287632;28;20195;-67
2024/01/11 06:04:17;;;;;;;5.53;3.40;;;;;;;;;;10287893;28;20332;-67
2024/01/11 06:09:17;;;;;;;7.00;3.97;;;;;;;;;;10287384;28;20226;-67
2024/01/11 06:14:17;;;;;;;6.97;4.15;;;;;;;;;;10286976;28;20205;-69
2024/01/11 06:19:17;;;;;;;7.80;3.33;;;;;;;;;;10286299;28;20622;-67
2024/01/11 06:24:17;;;;;;;5.37;3.13;;;;;;;;;;10286262;28;20690;-66
2024/01/11 06:29:18;;;;;;;8.27;4.30;;;;;;;;;;10285677;28;20225;-67
2024/01/11 06:34:18;;;;;;;6.10;4.17;;;;;;;;;;10286263;28;20210;-67
2024/01/11 06:39:18;;;;;;;18.20;10.03;;;;;;;;;;10287006;28;20195;-67
2024/01/11 06:44:18;;;;;;;12.97;6.70;;;;;;;;;;10286796;28;20215;-67
2024/01/11 06:49:18;;;;;;;10.37;5.70;;;;;;;;;;10286847;28;20733;-68
2024/01/11 06:54:18;;;;;;;9.43;4.37;;;;;;;;;;10287017;28;20233;-66
2024/01/11 06:59:19;;;;;;;7.17;4.63;;;;;;;;;;10294724;28;20186;-67
2024/01/11 07:04:19;;;;;;;7.03;4.30;;;;;;;;;;10293912;28;20251;-67
2024/01/11 07:09:20;;;;;;;11.40;4.87;;;;;;;;;;10294083;28;20215;-66
2024/01/11 07:14:20;;;;;;;5.53;3.83;;;;;;;;;;10293743;28;20207;-66
2024/01/11 07:19:20;;;;;;;9.90;4.80;;;;;;;;;;10293750;28;20189;-67
2024/01/11 07:24:20;;;;;;;8.40;4.23;;;;;;;;;;10293755;28;20473;-66
2024/01/11 07:29:21;;;;;;;6.20;4.00;;;;;;;;;;10292851;28;20223;-67
2024/01/11 07:34:21;;;;;;;20.23;8.07;;;;;;;;;;10293267;28;20536;-67
2024/01/11 07:39:22;;;;;;;20.33;9.23;;;;;;;;;;10292613;28;20202;-67
2024/01/11 07:44:22;;;;;;;11.53;6.07;;;;;;;;;;10292925;28;20218;-66
2024/01/11 07:49:22;;;;;;;12.40;5.63;;;;;;;;;;10292198;28;20655;-66
2024/01/11 07:54:23;;;;;;;10.00;5.70;;;;;;;;;;10291582;28;20230;-66
2024/01/11 07:59:23;;;;;;;9.07;5.77;;;;;;;;;;10291607;28;20202;-66
2024/01/11 08:04:23;;;;;;;11.97;6.13;;;;;;;;;;10287592;28;20230;-66
2024/01/11 08:09:24;;;;;;;8.27;4.70;;;;;;;;;;10289334;28;20214;-69
2024/01/11 08:14:24;;;;;;;10.97;5.40;;;;;;;;;;10289240;28;20684;-66
2024/01/11 08:19:24;;;;;;;17.50;7.73;;;;;;;;;;10288494;28;20202;-67
2024/01/11 08:24:25;;;;;;;15.37;5.70;;;;;;;;;;10287660;28;20242;-69
2024/01/11 08:29:25;;;;;;;11.87;5.60;;;;;;;;;;10289033;28;20226;-69
2024/01/11 08:34:26;;;;;;;10.50;5.33;;;;;;;;;;10288415;28;20223;-68
2024/01/11 08:39:26;;;;;;;10.17;4.47;;;;;;;;;;10289195;28;20733;-68
2024/01/11 08:44:26;;;;;;;13.57;6.47;;;;;;;;;;10288892;28;20215;-66
2024/01/11 08:49:27;;;;;;;9.60;6.17;;;;;;;;;;10289552;28;20226;-66
2024/01/11 08:54:27;;;;;;;11.67;6.57;;;;;;;;;;10288807;28;20627;-66
2024/01/11 08:59:27;;;;;;;11.43;7.00;;;;;;;;;;10288915;28;20648;-64
2024/01/11 09:04:29;;;;;;;22.83;8.80;;;;;;;;;;10287100;28;20253;-66
2024/01/11 09:09:29;;;;;;;22.23;10.20;;;;;;;;;;10287946;28;20226;-67
2024/01/11 09:14:29;;;;;;;19.13;9.23;;;;;;;;;;10287553;28;20210;-66
2024/01/11 09:19:30;;;;;;;12.60;7.47;;;;;;;;;;10287129;28;20230;-68
2024/01/11 09:24:30;;;;;;;13.87;6.87;;;;;;;;;;10286873;28;20294;-68
2024/01/11 09:29:30;;;;;;;14.17;6.67;;;;;;;;;;10288023;28;20229;-68
2024/01/11 09:34:31;;;;;;;16.17;7.57;;;;;;;;;;10285523;28;20581;-69
2024/01/11 09:39:31;;;;;;;18.73;9.63;;;;;;;;;;10287084;28;20199;-68
2024/01/11 09:44:32;;;;;;;28.13;21.43;;;;;;;;;;10286621;28;20229;-68
2024/01/11 09:49:33;;;;;;;27.63;22.77;;;;;;;;;;10286336;28;20250;-66
2024/01/11 09:54:33;;;;;;;22.17;13.70;;;;;;;;;;10286581;28;20639;-67
2024/01/11 09:59:33;;;;;;;16.07;10.17;;;;;;;;;;10285685;28;20654;-69
2024/01/11 10:04:34;;;;;;;12.13;7.33;;;;;;;;;;10286069;28;20242;-67
2024/01/11 10:09:34;;;;;;;17.87;8.50;;;;;;;;;;10284860;28;20210;-66
2024/01/11 10:14:35;;;;;;;12.80;6.93;;;;;;;;;;10286133;28;20234;-66
2024/01/11 10:19:35;;;;;;;13.43;7.30;;;;;;;;;;10285845;28;20202;-66
2024/01/11 10:24:36;;;;;;;11.37;6.90;;;;;;;;;;10285073;28;20744;-66
2024/01/11 10:29:37;;;;;;;10.10;6.53;;;;;;;;;;10286721;28;20211;-65
2024/01/11 10:34:39;;;;;;;12.33;6.80;;;;;;;;;;10293214;28;20218;-66
2024/01/11 10:39:40;;;;;;;14.80;8.53;;;;;;;;;;10292763;28;20213;-66
2024/01/11 10:44:43;;;;;;;20.33;15.37;;;;;;;;;;10293482;28;20229;-67
2024/01/11 10:49:44;;;;;;;12.03;7.33;;;;;;;;;;10292973;28;20269;-66
2024/01/11 10:54:45;;;;;;;11.83;7.53;;;;;;;;;;10293445;28;20218;-67
2024/01/11 10:59:47;;;;;;;8.97;5.83;;;;;;;;;;10292721;28;20200;-67
2024/01/11 11:04:48;;;;;;;12.87;7.13;;;;;;;;;;10337358;22;20248;-65
2024/01/11 11:09:49;;;;;;;12.63;7.30;;;;;;;;;;10314686;28;20221;-66
2024/01/11 11:14:50;;;;;;;13.33;7.13;;;;;;;;;;10330879;28;20289;-66
2024/01/11 11:19:50;;;;;;;12.53;6.93;;;;;;;;;;10331327;28;20220;-67
2024/01/11 11:25:03;;;;;;;13.47;7.33;;;;;;;;;;10332329;28;20593;-66
2024/01/11 11:30:04;;;;;;;10.43;6.03;;;;;;;;;;10328587;28;20198;-66
2024/01/11 11:35:05;;;;;;;14.13;6.97;;;;;;;;;;10331876;28;20380;-67
2024/01/11 11:40:06;;;;;;;9.43;6.60;;;;;;;;;;10330654;28;20788;-66
2024/01/11 11:45:07;;;;;;;8.63;4.77;;;;;;;;;;10326522;28;20209;-63
2024/01/11 11:50:09;;;;;;;12.37;6.23;;;;;;;;;;10330855;28;20542;-66
2024/01/11 11:55:09;;;;;;;10.47;5.70;;;;;;;;;;10330589;28;20202;-65
2024/01/11 12:00:11;;;;;;;11.07;6.40;;;;;;;;;;10330301;28;20186;-67
2024/01/11 12:05:14;;;;;;;11.53;6.97;;;;;;;;;;10329752;28;20231;-67
2024/01/11 12:10:14;;;;;;;10.03;5.90;;;;;;;;;;10330062;28;20186;-67
2024/01/11 12:15:14;;;;;;;8.83;4.83;;;;;;;;;;10324938;28;20205;-66
2024/01/11 12:20:16;;;;;;;10.07;5.03;;;;;;;;;;10329806;28;20186;-67
2024/01/11 12:25:16;;;;;;;23.67;13.73;;;;;;;;;;10328566;28;20224;-67
2024/01/11 12:30:17;;;;;;;11.10;7.23;;;;;;;;;;10324784;28;20297;-65
2024/01/11 12:35:17;;;;;;;12.50;6.70;;;;;;;;;;10326906;28;20272;-66
2024/01/11 12:40:17;;;;;;;14.40;8.47;;;;;;;;;;10324724;28;20189;-66
2024/01/11 12:45:17;;;;;;;13.73;8.00;;;;;;;;;;10328777;28;20692;-66
2024/01/11 12:50:17;;;;;;;24.10;12.13;;;;;;;;;;10324904;28;20943;-66
2024/01/11 12:55:18;;;;;;;18.33;9.40;;;;;;;;;;10328003;28;20296;-67
2024/01/11 13:00:19;;;;;;;19.93;11.30;;;;;;;;;;10327977;28;20208;-66
2024/01/11 13:05:19;;;;;;;15.60;10.03;;;;;;;;;;10327300;28;20244;-66
2024/01/11 13:10:19;;;;;;;20.00;10.63;;;;;;;;;;10327915;28;20297;-66
2024/01/11 13:15:19;;;;;;;26.03;12.23;;;;;;;;;;10324457;28;20216;-66
2024/01/11 13:20:20;;;;;;;18.90;10.10;;;;;;;;;;10321742;28;20217;-67
2024/01/11 13:25:20;;;;;;;51.13;21.50;;;;;;;;;;10326392;28;20236;-68
2024/01/11 13:30:20;;;;;;;36.17;16.77;;;;;;;;;;10325867;28;20202;-68
2024/01/11 13:35:20;;;;;;;18.47;8.60;;;;;;;;;;10325244;28;20335;-68
2024/01/11 13:40:20;;;;;;;20.53;9.33;;;;;;;;;;10326273;28;20414;-67
2024/01/11 13:45:20;;;;;;;21.57;9.47;;;;;;;;;;10325786;28;20229;-67
2024/01/11 13:50:21;;;;;;;14.27;7.67;;;;;;;;;;10324518;28;20252;-67
2024/01/11 13:55:22;;;;;;;17.07;8.07;;;;;;;;;;10323212;28;20587;-68
2024/01/11 14:00:22;;;;;;;16.67;8.23;;;;;;;;;;10325475;28;20830;-67
2024/01/11 14:05:22;;;;;;;20.00;8.87;;;;;;;;;;10324920;28;20626;-68
2024/01/11 14:10:22;;;;;;;13.63;7.47;;;;;;;;;;10323826;28;20264;-68
2024/01/11 14:15:23;;;;;;;17.37;9.27;;;;;;;;;;10325579;28;20694;-67
2024/01/11 14:20:24;;;;;;;16.20;8.77;;;;;;;;;;10324639;28;20435;-67
2024/01/11 14:25:29;;;;;;;19.63;9.43;;;;;;;;;;10322919;28;20574;-67
2024/01/11 14:30:29;;;;;;;19.63;9.87;;;;;;;;;;10324468;28;20198;-68
2024/01/11 14:35:29;;;;;;;19.43;10.13;;;;;;;;;;10324773;28;20213;-68
2024/01/11 14:40:29;;;;;;;22.13;11.00;;;;;;;;;;10325093;28;20202;-67
2024/01/11 14:45:30;;;;;;;20.87;9.73;;;;;;;;;;10324353;28;20226;-67
2024/01/11 14:50:30;;;;;;;18.17;10.20;;;;;;;;;;10324675;28;20198;-68
2024/01/11 14:55:30;;;;;;;22.60;10.53;;;;;;;;;;10322974;28;20217;-68
2024/01/11 15:00:30;;;;;;;22.53;11.60;;;;;;;;;;10325104;28;20579;-67
2024/01/11 15:05:31;;;;;;;20.00;10.43;;;;;;;;;;10324497;28;20253;-68
2024/01/11 15:10:31;;;;;;;26.63;10.97;;;;;;;;;;10324439;28;20549;-67
2024/01/11 15:15:31;;;;;;;25.67;12.57;;;;;;;;;;10325165;28;20213;-67
2024/01/11 15:20:32;;;;;;;37.50;16.00;;;;;;;;;;10331546;28;20281;-67
2024/01/11 15:25:32;;;;;;;29.20;13.73;;;;;;;;;;10331879;28;20229;-67
2024/01/11 15:30:32;;;;;;;27.13;13.43;;;;;;;;;;10329580;28;20217;-67
2024/01/11 15:35:32;;;;;;;28.33;14.30;;;;;;;;;;10331459;28;20241;-67
2024/01/11 15:40:32;;;;;;;28.67;14.33;;;;;;;;;;10331470;28;20201;-67
2024/01/11 15:45:33;;;;;;;29.83;12.83;;;;;;;;;;10331146;28;20214;-67
2024/01/11 15:50:33;;;;;;;30.17;14.13;;;;;;;;;;10331209;28;20233;-68
2024/01/11 15:55:34;;;;;;;28.93;13.40;;;;;;;;;;10330730;28;20228;-67
2024/01/11 16:00:34;;;;;;;28.60;13.50;;;;;;;;;;10326827;28;20206;-67
2024/01/11 16:05:34;;;;;;;30.83;13.47;;;;;;;;;;10329460;28;20238;-68
2024/01/11 16:10:35;;;;;;;30.73;13.57;;;;;;;;;;10326536;28;20193;-68
2024/01/11 16:15:35;;;;;;;31.80;15.50;;;;;;;;;;10326192;28;20220;-68
2024/01/11 16:20:35;;;;;;;30.80;12.40;;;;;;;;;;10326137;28;20194;-68
2024/01/11 16:25:35;;;;;;;33.97;14.73;;;;;;;;;;10325679;28;20874;-67
2024/01/11 16:30:35;;;;;;;35.93;14.10;;;;;;;;;;10320021;28;20285;-68
2024/01/11 16:35:36;;;;;;;30.70;14.13;;;;;;;;;;10320228;28;20213;-67
2024/01/11 16:40:36;;;;;;;36.20;14.97;;;;;;;;;;10323446;28;20194;-67
2024/01/11 16:45:36;;;;;;;33.23;14.80;;;;;;;;;;10324991;28;20488;-68
2024/01/11 16:50:37;;;;;;;35.13;14.43;;;;;;;;;;10326100;28;20253;-67
2024/01/11 16:55:40;;;;;;;35.00;15.27;;;;;;;;;;10328339;28;20271;-67
2024/01/11 17:00:42;;;;;;;34.20;16.03;;;;;;;;;;10328277;28;20264;-67
2024/01/11 17:05:42;;;;;;;34.40;15.83;;;;;;;;;;10406114;22;20327;-65
2024/01/11 17:10:43;;;;;;;44.90;19.45;;;;;;;;;;10409175;28;20655;-67
2024/01/11 17:15:43;;;;;;;46.07;20.93;;;;;;;;;;10374022;28;20602;-68
2024/01/11 17:20:44;;;;;;;42.07;20.00;;;;;;;;;;10368440;28;20197;-66
2024/01/11 17:25:44;;;;;;;48.23;22.23;;;;;;;;;;10363657;28;20489;-68
2024/01/11 17:30:44;;;;;;;57.67;27.60;;;;;;;;;;10366862;28;20957;-68
2024/01/11 17:35:45;;;;;;;62.07;28.50;;;;;;;;;;10362837;28;20537;-67
2024/01/11 17:40:45;;;;;;;57.97;23.57;;;;;;;;;;10365040;28;20205;-67
2024/01/11 17:45:48;;;;;;;62.03;25.73;;;;;;;;;;10367824;28;20232;-67
2024/01/11 17:50:48;;;;;;;59.60;24.53;;;;;;;;;;10368504;28;20658;-68
2024/01/11 17:55:49;;;;;;;49.23;23.90;;;;;;;;;;10368785;28;20216;-68
2024/01/11 18:00:49;;;;;;;68.13;30.20;;;;;;;;;;10368002;28;20455;-68
2024/01/11 18:05:49;;;;;;;59.70;26.83;;;;;;;;;;10368088;28;20588;-68
2024/01/11 18:10:49;;;;;;;60.23;26.40;;;;;;;;;;10368396;28;20189;-66
2024/01/11 18:15:49;;;;;;;60.77;26.93;;;;;;;;;;10368046;28;20209;-67
2024/01/11 18:20:50;;;;;;;56.80;26.87;;;;;;;;;;10367827;28;20624;-68
2024/01/11 18:25:50;;;;;;;67.83;28.47;;;;;;;;;;10367441;28;20592;-67
2024/01/11 18:30:50;;;;;;;67.83;29.47;;;;;;;;;;10367831;28;20208;-68
2024/01/11 18:35:50;;;;;;;68.73;30.80;;;;;;;;;;10367580;28;20205;-67
2024/01/11 18:40:50;;;;;;;65.53;27.43;;;;;;;;;;10367366;28;20201;-67
2024/01/11 18:45:51;;;;;;;65.97;28.20;;;;;;;;;;10367473;28;20227;-68
2024/01/11 18:50:52;;;;;;;69.10;31.43;;;;;;;;;;10367770;28;20443;-68
2024/01/11 18:55:56;;;;;;;73.73;31.37;;;;;;;;;;10375522;28;20793;-68
2024/01/11 19:00:57;;;;;;;64.13;29.47;;;;;;;;;;10374969;28;20280;-68
2024/01/11 19:05:57;;;;;;;127.10;47.47;;;;;;;;;;10370944;28;20305;-67
2024/01/11 19:10:58;;;;;;;64.73;31.13;;;;;;;;;;10374551;28;20277;-68
2024/01/11 19:15:59;;;;;;;64.33;27.87;;;;;;;;;;10373868;28;20201;-66
2024/01/11 19:21:01;;;;;;;43.20;21.20;;;;;;;;;;10374223;28;20193;-68
2024/01/11 19:26:01;;;;;;;46.27;20.93;;;;;;;;;;10373478;28;20226;-68
2024/01/11 19:31:03;;;;;;;51.00;23.63;;;;;;;;;;10373859;28;20197;-68
2024/01/11 19:36:04;;;;;;;61.73;26.90;;;;;;;;;;10373136;28;20219;-67
2024/01/11 19:41:04;;;;;;;54.67;24.30;;;;;;;;;;10373115;28;20224;-68
2024/01/11 19:46:04;;;;;;;59.70;25.70;;;;;;;;;;10373067;28;20868;-68
2024/01/11 19:51:08;;;;;;;49.97;23.10;;;;;;;;;;10372141;28;20209;-67
2024/01/11 19:56:16;;;;;;;49.30;23.40;;;;;;;;;;10372536;28;20208;-67
2024/01/11 20:01:17;;;;;;;41.53;21.60;;;;;;;;;;10372641;28;20849;-68
2024/01/11 20:06:17;;;;;;;48.77;22.43;;;;;;;;;;10371868;28;20255;-67
2024/01/11 20:11:17;;;;;;;67.57;29.60;;;;;;;;;;10372327;28;20199;-68
2024/01/11 20:16:18;;;;;;;61.57;26.83;;;;;;;;;;10371128;28;20213;-68
2024/01/11 20:21:18;;;;;;;51.70;23.00;;;;;;;;;;10371896;28;20258;-68
2024/01/11 20:26:20;;;;;;;58.70;26.50;;;;;;;;;;10371024;28;20249;-68
2024/01/11 20:31:20;;;;;;;55.37;23.70;;;;;;;;;;10370909;28;20455;-66
2024/01/11 20:36:21;;;;;;;48.73;23.00;;;;;;;;;;10371081;28;20636;-67
2024/01/11 20:41:21;;;;;;;50.57;22.67;;;;;;;;;;10370676;28;20200;-68
2024/01/11 20:46:22;;;;;;;54.05;22.20;;;;;;;;;;10370797;28;20984;-68
2024/01/11 20:51:23;;;;;;;49.00;23.87;;;;;;;;;;10370463;28;20181;-67
2024/01/11 20:56:23;;;;;;;49.13;21.97;;;;;;;;;;10370437;28;20216;-67
2024/01/11 21:01:23;;;;;;;60.87;22.90;;;;;;;;;;10370285;28;20192;-67
2024/01/11 21:06:23;;;;;;;50.10;21.57;;;;;;;;;;10369714;28;20601;-67
2024/01/11 21:11:24;;;;;;;47.50;21.13;;;;;;;;;;10369626;28;20193;-67
2024/01/11 21:16:24;;;;;;;48.50;21.03;;;;;;;;;;10369108;28;20263;-67
2024/01/11 21:21:26;;;;;;;45.17;20.87;;;;;;;;;;10369723;28;20291;-67
2024/01/11 21:26:27;;;;;;;44.00;19.50;;;;;;;;;;10365716;28;20319;-66
2024/01/11 21:31:28;;;;;;;44.07;19.10;;;;;;;;;;10369051;28;20272;-68
2024/01/11 21:36:28;;;;;;;36.00;16.33;;;;;;;;;;10369377;28;20219;-67
2024/01/11 21:41:29;;;;;;;30.07;15.27;;;;;;;;;;10369256;28;20701;-67
2024/01/11 21:46:30;;;;;;;37.57;15.00;;;;;;;;;;10368863;28;20702;-67
2024/01/11 21:51:30;;;;;;;30.73;13.77;;;;;;;;;;10368664;28;20200;-68
2024/01/11 21:56:30;;;;;;;31.60;14.33;;;;;;;;;;10368583;28;20199;-69
2024/01/11 22:01:31;;;;;;;33.93;16.67;;;;;;;;;;10368749;28;20193;-68
2024/01/11 22:06:33;;;;;;;34.40;14.57;;;;;;;;;;10367748;28;20252;-67
2024/01/11 22:11:34;;;;;;;34.47;14.73;;;;;;;;;;10368479;28;20196;-68
2024/01/11 22:16:34;;;;;;;30.90;15.20;;;;;;;;;;10368490;28;20196;-67
2024/01/11 22:21:39;;;;;;;36.73;16.13;;;;;;;;;;10367978;28;20205;-68
2024/01/11 22:26:40;;;;;;;36.27;16.60;;;;;;;;;;10366740;28;20224;-68
2024/01/11 22:31:40;;;;;;;41.00;18.23;;;;;;;;;;10367924;28;20624;-68
2024/01/11 22:36:44;;;;;;;42.47;17.30;;;;;;;;;;10368065;28;20273;-68
2024/01/11 22:41:45;;;;;;;47.53;21.03;;;;;;;;;;10365830;28;20205;-68
2024/01/11 22:46:45;;;;;;;48.63;19.73;;;;;;;;;;10364374;28;20636;-67
2024/01/11 22:51:45;;;;;;;47.60;20.40;;;;;;;;;;10367576;28;20236;-68
2024/01/11 22:56:45;;;;;;;46.73;19.50;;;;;;;;;;10367604;28;20193;-68
2024/01/11 23:01:45;;;;;;;41.33;16.83;;;;;;;;;;10367114;28;20208;-68
2024/01/11 23:06:46;;;;;;;39.40;17.17;;;;;;;;;;10347079;22;20328;-67
2024/01/11 23:11:47;;;;;;;44.77;17.20;;;;;;;;;;10326236;28;20210;-67
2024/01/11 23:16:47;;;;;;;38.67;16.43;;;;;;;;;;10326434;28;20220;-67
2024/01/11 23:21:47;;;;;;;43.20;19.33;;;;;;;;;;10326235;28;20249;-67
2024/01/11 23:26:50;;;;;;;46.13;17.27;;;;;;;;;;10325782;28;20217;-67
2024/01/11 23:31:50;;;;;;;48.07;18.63;;;;;;;;;;10326353;28;20194;-67
2024/01/11 23:36:50;;;;;;;41.23;17.97;;;;;;;;;;10327043;28;20592;-67
2024/01/11 23:41:50;;;;;;;43.87;18.23;;;;;;;;;;10333168;28;20196;-67
2024/01/11 23:46:51;;;;;;;42.90;18.60;;;;;;;;;;10332602;28;20784;-67
2024/01/11 23:51:51;;;;;;;36.47;16.37;;;;;;;;;;10332990;28;20603;-68
2024/01/11 23:56:51;;;;;;;42.17;17.80;;;;;;;;;;10332581;28;21009;-69
